sensor_id;sensor_type;location;lat;lon;timestamp;P1;durP1;ratioP1;P2;durP2;ratioP2
18881;SDS011;9573;50.948;11.600;2023-01-24T00:00:51;61.77;;;21.73;;
18881;SDS011;9573;50.948;11.600;2023-01-24T00:03:19;58.77;;;19.87;;
18881;SDS011;9573;50.948;11.600;2023-01-24T00:05:47;58.73;;;20.17;;
18881;SDS011;9573;50.948;11.600;2023-01-24T00:08:16;59.63;;;19.83;;
18881;SDS011;9573;50.948;11.600;2023-01-24T00:10:47;55.57;;;19.00;;
18881;SDS011;9573;50.948;11.600;2023-01-24T00:13:15;58.53;;;19.20;;
18881;SDS011;9573;50.948;11.600;2023-01-24T00:15:42;57.77;;;19.50;;
18881;SDS011;9573;50.948;11.600;2023-01-24T00:18:09;54.73;;;19.33;;
18881;SDS011;9573;50.948;11.600;2023-01-24T00:20:38;53.67;;;19.47;;
18881;SDS011;9573;50.948;11.600;2023-01-24T00:23:05;58.93;;;19.77;;
18881;SDS011;9573;50.948;11.600;2023-01-24T00:25:32;54.07;;;18.83;;
18881;SDS011;9573;50.948;11.600;2023-01-24T00:27:59;52.73;;;18.93;;
18881;SDS011;9573;50.948;11.600;2023-01-24T00:30:26;52.83;;;19.30;;
18881;SDS011;9573;50.948;11.600;2023-01-24T00:32:53;54.90;;;19.83;;
18881;SDS011;9573;50.948;11.600;2023-01-24T00:35:20;60.10;;;19.27;;
18881;SDS011;9573;50.948;11.600;2023-01-24T00:37:49;52.73;;;18.63;;
18881;SDS011;9573;50.948;11.600;2023-01-24T00:40:16;52.67;;;18.83;;
18881;SDS011;9573;50.948;11.600;2023-01-24T00:42:44;55.93;;;18.97;;
18881;SDS011;9573;50.948;11.600;2023-01-24T00:45:11;56.90;;;19.23;;
18881;SDS011;9573;50.948;11.600;2023-01-24T00:47:38;52.53;;;19.17;;
18881;SDS011;9573;50.948;11.600;2023-01-24T00:50:05;55.83;;;18.97;;
18881;SDS011;9573;50.948;11.600;2023-01-24T00:52:33;51.10;;;18.37;;
18881;SDS011;9573;50.948;11.600;2023-01-24T00:55:01;55.90;;;19.37;;
18881;SDS011;9573;50.948;11.600;2023-01-24T00:57:29;59.33;;;20.80;;
18881;SDS011;9573;50.948;11.600;2023-01-24T00:59:56;57.27;;;19.87;;
18881;SDS011;9573;50.948;11.600;2023-01-24T01:02:23;51.53;;;19.10;;
18881;SDS011;9573;50.948;11.600;2023-01-24T01:04:50;51.90;;;18.00;;
18881;SDS011;9573;50.948;11.600;2023-01-24T01:07:17;50.57;;;18.30;;
18881;SDS011;9573;50.948;11.600;2023-01-24T01:09:45;51.70;;;18.33;;
18881;SDS011;9573;50.948;11.600;2023-01-24T01:12:14;57.10;;;19.20;;
18881;SDS011;9573;50.948;11.600;2023-01-24T01:14:41;51.33;;;18.90;;
18881;SDS011;9573;50.948;11.600;2023-01-24T01:17:08;53.17;;;18.83;;
18881;SDS011;9573;50.948;11.600;2023-01-24T01:19:35;51.87;;;18.60;;
18881;SDS011;9573;50.948;11.600;2023-01-24T01:22:02;51.30;;;18.00;;
18881;SDS011;9573;50.948;11.600;2023-01-24T01:24:29;48.90;;;17.10;;
18881;SDS011;9573;50.948;11.600;2023-01-24T01:26:56;48.47;;;17.83;;
18881;SDS011;9573;50.948;11.600;2023-01-24T01:29:25;50.47;;;18.30;;
18881;SDS011;9573;50.948;11.600;2023-01-24T01:31:52;48.20;;;17.43;;
18881;SDS011;9573;50.948;11.600;2023-01-24T01:34:19;48.90;;;18.43;;
18881;SDS011;9573;50.948;11.600;2023-01-24T01:36:46;47.40;;;16.33;;
18881;SDS011;9573;50.948;11.600;2023-01-24T01:39:13;48.60;;;17.77;;
18881;SDS011;9573;50.948;11.600;2023-01-24T01:41:40;48.90;;;16.57;;
18881;SDS011;9573;50.948;11.600;2023-01-24T01:44:17;49.93;;;17.20;;
18881;SDS011;9573;50.948;11.600;2023-01-24T01:47:04;47.67;;;16.83;;
18881;SDS011;9573;50.948;11.600;2023-01-24T01:49:43;49.47;;;17.10;;
18881;SDS011;9573;50.948;11.600;2023-01-24T01:52:15;47.07;;;17.27;;
18881;SDS011;9573;50.948;11.600;2023-01-24T01:54:42;46.37;;;16.30;;
18881;SDS011;9573;50.948;11.600;2023-01-24T01:57:12;50.03;;;17.83;;
18881;SDS011;9573;50.948;11.600;2023-01-24T01:59:44;50.10;;;17.77;;
18881;SDS011;9573;50.948;11.600;2023-01-24T02:02:16;45.47;;;16.47;;
18881;SDS011;9573;50.948;11.600;2023-01-24T02:04:46;49.30;;;17.60;;
18881;SDS011;9573;50.948;11.600;2023-01-24T02:07:19;48.80;;;17.47;;
18881;SDS011;9573;50.948;11.600;2023-01-24T02:09:50;50.53;;;17.70;;
18881;SDS011;9573;50.948;11.600;2023-01-24T02:12:20;44.53;;;16.10;;
18881;SDS011;9573;50.948;11.600;2023-01-24T02:14:50;50.23;;;17.87;;
18881;SDS011;9573;50.948;11.600;2023-01-24T02:17:38;48.00;;;16.63;;
18881;SDS011;9573;50.948;11.600;2023-01-24T02:20:08;42.77;;;14.57;;
18881;SDS011;9573;50.948;11.600;2023-01-24T02:23:03;49.37;;;16.60;;
18881;SDS011;9573;50.948;11.600;2023-01-24T02:25:45;46.53;;;17.03;;
18881;SDS011;9573;50.948;11.600;2023-01-24T02:28:18;42.17;;;15.47;;
18881;SDS011;9573;50.948;11.600;2023-01-24T02:30:46;45.57;;;16.67;;
18881;SDS011;9573;50.948;11.600;2023-01-24T02:33:14;47.23;;;16.57;;
18881;SDS011;9573;50.948;11.600;2023-01-24T02:35:44;44.63;;;15.57;;
18881;SDS011;9573;50.948;11.600;2023-01-24T02:38:13;46.10;;;16.03;;
18881;SDS011;9573;50.948;11.600;2023-01-24T02:40:45;43.97;;;15.00;;
18881;SDS011;9573;50.948;11.600;2023-01-24T02:43:13;38.97;;;13.67;;
18881;SDS011;9573;50.948;11.600;2023-01-24T02:45:44;40.33;;;13.23;;
18881;SDS011;9573;50.948;11.600;2023-01-24T02:48:11;37.97;;;13.50;;
18881;SDS011;9573;50.948;11.600;2023-01-24T02:50:38;40.23;;;13.70;;
18881;SDS011;9573;50.948;11.600;2023-01-24T02:53:31;39.43;;;14.30;;
18881;SDS011;9573;50.948;11.600;2023-01-24T02:55:58;36.73;;;12.63;;
18881;SDS011;9573;50.948;11.600;2023-01-24T02:58:41;38.07;;;12.63;;
18881;SDS011;9573;50.948;11.600;2023-01-24T03:01:10;38.83;;;13.23;;
18881;SDS011;9573;50.948;11.600;2023-01-24T03:03:39;35.83;;;12.93;;
18881;SDS011;9573;50.948;11.600;2023-01-24T03:06:07;34.13;;;11.90;;
18881;SDS011;9573;50.948;11.600;2023-01-24T03:08:35;32.40;;;11.37;;
18881;SDS011;9573;50.948;11.600;2023-01-24T03:11:03;32.77;;;11.20;;
18881;SDS011;9573;50.948;11.600;2023-01-24T03:13:31;31.40;;;11.53;;
18881;SDS011;9573;50.948;11.600;2023-01-24T03:16:18;33.53;;;12.20;;
18881;SDS011;9573;50.948;11.600;2023-01-24T03:19:03;34.50;;;11.70;;
18881;SDS011;9573;50.948;11.600;2023-01-24T03:21:48;33.73;;;11.57;;
18881;SDS011;9573;50.948;11.600;2023-01-24T03:24:33;37.37;;;12.57;;
18881;SDS011;9573;50.948;11.600;2023-01-24T03:27:18;36.17;;;11.67;;
18881;SDS011;9573;50.948;11.600;2023-01-24T03:30:03;40.00;;;13.10;;
18881;SDS011;9573;50.948;11.600;2023-01-24T03:32:51;35.30;;;11.10;;
18881;SDS011;9573;50.948;11.600;2023-01-24T03:35:36;35.50;;;12.60;;
18881;SDS011;9573;50.948;11.600;2023-01-24T03:38:03;35.77;;;12.17;;
18881;SDS011;9573;50.948;11.600;2023-01-24T03:40:50;35.33;;;12.70;;
18881;SDS011;9573;50.948;11.600;2023-01-24T03:43:18;38.57;;;13.27;;
18881;SDS011;9573;50.948;11.600;2023-01-24T03:45:45;35.77;;;12.43;;
18881;SDS011;9573;50.948;11.600;2023-01-24T03:48:13;38.50;;;13.83;;
18881;SDS011;9573;50.948;11.600;2023-01-24T03:50:52;39.93;;;13.47;;
18881;SDS011;9573;50.948;11.600;2023-01-24T03:53:37;37.23;;;12.27;;
18881;SDS011;9573;50.948;11.600;2023-01-24T03:56:04;35.40;;;13.03;;
18881;SDS011;9573;50.948;11.600;2023-01-24T03:58:31;35.23;;;12.37;;
18881;SDS011;9573;50.948;11.600;2023-01-24T04:00:59;31.40;;;11.07;;
18881;SDS011;9573;50.948;11.600;2023-01-24T04:03:27;36.20;;;12.83;;
18881;SDS011;9573;50.948;11.600;2023-01-24T04:05:56;39.43;;;13.73;;
18881;SDS011;9573;50.948;11.600;2023-01-24T04:08:23;38.00;;;12.83;;
18881;SDS011;9573;50.948;11.600;2023-01-24T04:10:50;40.90;;;13.77;;
18881;SDS011;9573;50.948;11.600;2023-01-24T04:13:17;37.23;;;13.57;;
18881;SDS011;9573;50.948;11.600;2023-01-24T04:15:44;40.93;;;13.73;;
18881;SDS011;9573;50.948;11.600;2023-01-24T04:18:11;39.33;;;13.80;;
18881;SDS011;9573;50.948;11.600;2023-01-24T04:20:39;38.30;;;13.33;;
18881;SDS011;9573;50.948;11.600;2023-01-24T04:23:07;40.23;;;14.20;;
18881;SDS011;9573;50.948;11.600;2023-01-24T04:25:34;37.63;;;13.87;;
18881;SDS011;9573;50.948;11.600;2023-01-24T04:28:01;40.90;;;13.83;;
18881;SDS011;9573;50.948;11.600;2023-01-24T04:30:29;40.27;;;13.83;;
18881;SDS011;9573;50.948;11.600;2023-01-24T04:32:56;39.27;;;14.23;;
18881;SDS011;9573;50.948;11.600;2023-01-24T04:35:23;36.97;;;13.17;;
18881;SDS011;9573;50.948;11.600;2023-01-24T04:37:55;38.63;;;12.73;;
18881;SDS011;9573;50.948;11.600;2023-01-24T04:40:24;38.90;;;13.07;;
18881;SDS011;9573;50.948;11.600;2023-01-24T04:42:51;37.10;;;12.83;;
18881;SDS011;9573;50.948;11.600;2023-01-24T04:45:21;36.13;;;13.13;;
18881;SDS011;9573;50.948;11.600;2023-01-24T04:47:48;35.83;;;12.87;;
18881;SDS011;9573;50.948;11.600;2023-01-24T04:50:15;38.23;;;13.30;;
18881;SDS011;9573;50.948;11.600;2023-01-24T04:52:42;40.00;;;13.47;;
18881;SDS011;9573;50.948;11.600;2023-01-24T04:55:10;38.53;;;13.20;;
18881;SDS011;9573;50.948;11.600;2023-01-24T04:57:38;37.43;;;13.90;;
18881;SDS011;9573;50.948;11.600;2023-01-24T05:00:05;35.13;;;12.43;;
18881;SDS011;9573;50.948;11.600;2023-01-24T05:02:34;36.73;;;12.93;;
18881;SDS011;9573;50.948;11.600;2023-01-24T05:05:02;40.80;;;13.80;;
18881;SDS011;9573;50.948;11.600;2023-01-24T05:07:30;41.23;;;13.93;;
18881;SDS011;9573;50.948;11.600;2023-01-24T05:09:58;38.07;;;13.13;;
18881;SDS011;9573;50.948;11.600;2023-01-24T05:12:26;39.83;;;13.80;;
18881;SDS011;9573;50.948;11.600;2023-01-24T05:14:53;37.93;;;13.43;;
18881;SDS011;9573;50.948;11.600;2023-01-24T05:17:20;37.93;;;13.97;;
18881;SDS011;9573;50.948;11.600;2023-01-24T05:19:47;39.20;;;14.13;;
18881;SDS011;9573;50.948;11.600;2023-01-24T05:22:14;37.23;;;13.50;;
18881;SDS011;9573;50.948;11.600;2023-01-24T05:24:41;34.43;;;12.10;;
18881;SDS011;9573;50.948;11.600;2023-01-24T05:27:08;38.93;;;13.87;;
18881;SDS011;9573;50.948;11.600;2023-01-24T05:29:37;37.77;;;13.73;;
18881;SDS011;9573;50.948;11.600;2023-01-24T05:32:04;39.93;;;14.23;;
18881;SDS011;9573;50.948;11.600;2023-01-24T05:34:31;38.57;;;13.83;;
18881;SDS011;9573;50.948;11.600;2023-01-24T05:36:58;37.67;;;13.50;;
18881;SDS011;9573;50.948;11.600;2023-01-24T05:39:25;39.80;;;13.67;;
18881;SDS011;9573;50.948;11.600;2023-01-24T05:41:52;43.90;;;15.97;;
18881;SDS011;9573;50.948;11.600;2023-01-24T05:44:19;40.20;;;14.87;;
18881;SDS011;9573;50.948;11.600;2023-01-24T05:46:48;44.23;;;15.93;;
18881;SDS011;9573;50.948;11.600;2023-01-24T05:49:15;38.93;;;13.67;;
18881;SDS011;9573;50.948;11.600;2023-01-24T05:51:42;38.57;;;13.37;;
18881;SDS011;9573;50.948;11.600;2023-01-24T05:54:09;36.63;;;13.60;;
18881;SDS011;9573;50.948;11.600;2023-01-24T05:56:36;38.13;;;13.53;;
18881;SDS011;9573;50.948;11.600;2023-01-24T05:59:03;39.93;;;13.70;;
18881;SDS011;9573;50.948;11.600;2023-01-24T06:01:30;35.77;;;13.00;;
18881;SDS011;9573;50.948;11.600;2023-01-24T06:03:58;34.10;;;12.37;;
18881;SDS011;9573;50.948;11.600;2023-01-24T06:06:26;33.20;;;10.93;;
18881;SDS011;9573;50.948;11.600;2023-01-24T06:08:53;34.13;;;12.70;;
18881;SDS011;9573;50.948;11.600;2023-01-24T06:11:21;35.53;;;12.33;;
18881;SDS011;9573;50.948;11.600;2023-01-24T06:13:50;35.63;;;12.30;;
18881;SDS011;9573;50.948;11.600;2023-01-24T06:16:20;36.40;;;13.20;;
18881;SDS011;9573;50.948;11.600;2023-01-24T06:18:49;36.40;;;12.27;;
18881;SDS011;9573;50.948;11.600;2023-01-24T06:21:22;37.53;;;12.60;;
18881;SDS011;9573;50.948;11.600;2023-01-24T06:24:10;37.03;;;12.40;;
18881;SDS011;9573;50.948;11.600;2023-01-24T06:26:46;35.33;;;12.50;;
18881;SDS011;9573;50.948;11.600;2023-01-24T06:29:15;33.57;;;11.60;;
18881;SDS011;9573;50.948;11.600;2023-01-24T06:31:46;39.43;;;12.60;;
18881;SDS011;9573;50.948;11.600;2023-01-24T06:34:31;34.87;;;12.17;;
18881;SDS011;9573;50.948;11.600;2023-01-24T06:37:31;35.53;;;11.63;;
18881;SDS011;9573;50.948;11.600;2023-01-24T06:40:10;33.53;;;11.53;;
18881;SDS011;9573;50.948;11.600;2023-01-24T06:42:40;37.33;;;13.47;;
18881;SDS011;9573;50.948;11.600;2023-01-24T06:45:08;36.50;;;12.67;;
18881;SDS011;9573;50.948;11.600;2023-01-24T06:47:36;33.87;;;12.17;;
18881;SDS011;9573;50.948;11.600;2023-01-24T06:50:04;36.10;;;12.00;;
18881;SDS011;9573;50.948;11.600;2023-01-24T06:52:34;34.80;;;11.83;;
18881;SDS011;9573;50.948;11.600;2023-01-24T06:55:01;35.37;;;12.27;;
18881;SDS011;9573;50.948;11.600;2023-01-24T06:57:29;36.70;;;12.33;;
18881;SDS011;9573;50.948;11.600;2023-01-24T06:59:56;34.77;;;11.33;;
18881;SDS011;9573;50.948;11.600;2023-01-24T07:02:23;35.90;;;12.23;;
18881;SDS011;9573;50.948;11.600;2023-01-24T07:04:50;34.43;;;12.30;;
18881;SDS011;9573;50.948;11.600;2023-01-24T07:07:17;34.47;;;11.93;;
18881;SDS011;9573;50.948;11.600;2023-01-24T07:09:45;35.57;;;12.00;;
18881;SDS011;9573;50.948;11.600;2023-01-24T07:12:12;34.60;;;12.27;;
18881;SDS011;9573;50.948;11.600;2023-01-24T07:14:39;34.93;;;13.03;;
18881;SDS011;9573;50.948;11.600;2023-01-24T07:17:07;37.03;;;12.83;;
18881;SDS011;9573;50.948;11.600;2023-01-24T07:19:35;37.83;;;12.40;;
18881;SDS011;9573;50.948;11.600;2023-01-24T07:22:03;36.33;;;12.27;;
18881;SDS011;9573;50.948;11.600;2023-01-24T07:24:31;37.97;;;13.20;;
18881;SDS011;9573;50.948;11.600;2023-01-24T07:27:01;35.43;;;11.87;;
18881;SDS011;9573;50.948;11.600;2023-01-24T07:29:28;35.27;;;11.60;;
18881;SDS011;9573;50.948;11.600;2023-01-24T07:31:55;37.90;;;12.50;;
18881;SDS011;9573;50.948;11.600;2023-01-24T07:34:22;37.07;;;12.97;;
18881;SDS011;9573;50.948;11.600;2023-01-24T07:36:49;36.17;;;12.63;;
18881;SDS011;9573;50.948;11.600;2023-01-24T07:39:16;38.30;;;11.87;;
18881;SDS011;9573;50.948;11.600;2023-01-24T07:41:44;36.43;;;12.10;;
18881;SDS011;9573;50.948;11.600;2023-01-24T07:44:12;35.70;;;11.57;;
18881;SDS011;9573;50.948;11.600;2023-01-24T07:46:40;34.20;;;11.30;;
18881;SDS011;9573;50.948;11.600;2023-01-24T07:49:07;35.87;;;12.00;;
18881;SDS011;9573;50.948;11.600;2023-01-24T07:51:34;35.77;;;12.50;;
18881;SDS011;9573;50.948;11.600;2023-01-24T07:54:01;31.50;;;10.73;;
18881;SDS011;9573;50.948;11.600;2023-01-24T07:56:28;35.37;;;11.63;;
18881;SDS011;9573;50.948;11.600;2023-01-24T07:58:56;34.07;;;11.37;;
18881;SDS011;9573;50.948;11.600;2023-01-24T08:01:25;32.97;;;11.80;;
18881;SDS011;9573;50.948;11.600;2023-01-24T08:03:53;37.60;;;11.93;;
18881;SDS011;9573;50.948;11.600;2023-01-24T08:06:21;34.40;;;11.87;;
18881;SDS011;9573;50.948;11.600;2023-01-24T08:08:49;37.37;;;12.60;;
18881;SDS011;9573;50.948;11.600;2023-01-24T08:11:16;36.60;;;13.10;;
18881;SDS011;9573;50.948;11.600;2023-01-24T08:13:43;38.03;;;13.77;;
18881;SDS011;9573;50.948;11.600;2023-01-24T08:16:10;36.23;;;12.90;;
18881;SDS011;9573;50.948;11.600;2023-01-24T08:18:40;36.73;;;13.43;;
18881;SDS011;9573;50.948;11.600;2023-01-24T08:21:08;34.37;;;12.13;;
18881;SDS011;9573;50.948;11.600;2023-01-24T08:23:36;36.73;;;12.67;;
18881;SDS011;9573;50.948;11.600;2023-01-24T08:26:03;33.00;;;11.93;;
18881;SDS011;9573;50.948;11.600;2023-01-24T08:28:32;32.20;;;11.43;;
18881;SDS011;9573;50.948;11.600;2023-01-24T08:31:00;34.57;;;12.20;;
18881;SDS011;9573;50.948;11.600;2023-01-24T08:33:27;35.97;;;11.73;;
18881;SDS011;9573;50.948;11.600;2023-01-24T08:35:56;35.23;;;12.63;;
18881;SDS011;9573;50.948;11.600;2023-01-24T08:38:25;36.13;;;12.90;;
18881;SDS011;9573;50.948;11.600;2023-01-24T08:40:52;33.93;;;12.50;;
18881;SDS011;9573;50.948;11.600;2023-01-24T08:43:19;33.53;;;12.13;;
18881;SDS011;9573;50.948;11.600;2023-01-24T08:45:46;34.90;;;12.37;;
18881;SDS011;9573;50.948;11.600;2023-01-24T08:48:14;35.17;;;12.60;;
18881;SDS011;9573;50.948;11.600;2023-01-24T08:50:41;36.07;;;13.33;;
18881;SDS011;9573;50.948;11.600;2023-01-24T08:53:10;36.20;;;11.97;;
18881;SDS011;9573;50.948;11.600;2023-01-24T08:55:37;35.17;;;12.83;;
18881;SDS011;9573;50.948;11.600;2023-01-24T08:58:04;36.03;;;13.20;;
18881;SDS011;9573;50.948;11.600;2023-01-24T09:00:31;36.87;;;13.67;;
18881;SDS011;9573;50.948;11.600;2023-01-24T09:02:58;35.73;;;12.83;;
18881;SDS011;9573;50.948;11.600;2023-01-24T09:05:26;36.17;;;13.00;;
18881;SDS011;9573;50.948;11.600;2023-01-24T09:07:54;35.43;;;12.83;;
18881;SDS011;9573;50.948;11.600;2023-01-24T09:10:22;35.50;;;13.13;;
18881;SDS011;9573;50.948;11.600;2023-01-24T09:12:49;36.23;;;13.23;;
18881;SDS011;9573;50.948;11.600;2023-01-24T09:15:17;34.40;;;12.23;;
18881;SDS011;9573;50.948;11.600;2023-01-24T09:17:44;35.97;;;12.90;;
18881;SDS011;9573;50.948;11.600;2023-01-24T09:20:11;37.30;;;13.00;;
18881;SDS011;9573;50.948;11.600;2023-01-24T09:22:38;35.77;;;13.30;;
18881;SDS011;9573;50.948;11.600;2023-01-24T09:25:06;39.50;;;14.13;;
18881;SDS011;9573;50.948;11.600;2023-01-24T09:27:36;41.00;;;14.23;;
18881;SDS011;9573;50.948;11.600;2023-01-24T09:30:06;38.57;;;14.17;;
18881;SDS011;9573;50.948;11.600;2023-01-24T09:32:35;36.63;;;13.47;;
18881;SDS011;9573;50.948;11.600;2023-01-24T09:35:02;37.10;;;13.83;;
18881;SDS011;9573;50.948;11.600;2023-01-24T09:37:30;36.03;;;12.93;;
18881;SDS011;9573;50.948;11.600;2023-01-24T09:39:57;37.10;;;14.23;;
18881;SDS011;9573;50.948;11.600;2023-01-24T09:42:27;35.80;;;13.00;;
18881;SDS011;9573;50.948;11.600;2023-01-24T09:45:07;38.33;;;14.23;;
18881;SDS011;9573;50.948;11.600;2023-01-24T09:47:44;33.93;;;12.13;;
18881;SDS011;9573;50.948;11.600;2023-01-24T09:50:16;37.23;;;13.80;;
18881;SDS011;9573;50.948;11.600;2023-01-24T09:52:47;36.87;;;13.43;;
18881;SDS011;9573;50.948;11.600;2023-01-24T09:55:19;34.43;;;12.93;;
18881;SDS011;9573;50.948;11.600;2023-01-24T09:57:52;37.47;;;13.70;;
18881;SDS011;9573;50.948;11.600;2023-01-24T10:00:25;35.13;;;13.10;;
18881;SDS011;9573;50.948;11.600;2023-01-24T10:02:55;36.60;;;14.10;;
18881;SDS011;9573;50.948;11.600;2023-01-24T10:05:27;35.83;;;12.53;;
18881;SDS011;9573;50.948;11.600;2023-01-24T10:08:20;35.17;;;13.43;;
18881;SDS011;9573;50.948;11.600;2023-01-24T10:10:55;36.33;;;12.87;;
18881;SDS011;9573;50.948;11.600;2023-01-24T10:13:57;36.37;;;13.30;;
18881;SDS011;9573;50.948;11.600;2023-01-24T10:17:00;35.57;;;13.80;;
18881;SDS011;9573;50.948;11.600;2023-01-24T10:19:52;39.40;;;13.77;;
18881;SDS011;9573;50.948;11.600;2023-01-24T10:22:52;34.57;;;13.03;;
18881;SDS011;9573;50.948;11.600;2023-01-24T10:25:31;34.40;;;12.50;;
18881;SDS011;9573;50.948;11.600;2023-01-24T10:28:08;34.13;;;13.03;;
18881;SDS011;9573;50.948;11.600;2023-01-24T10:30:47;35.03;;;13.47;;
18881;SDS011;9573;50.948;11.600;2023-01-24T10:33:28;33.67;;;12.50;;
18881;SDS011;9573;50.948;11.600;2023-01-24T10:36:01;35.33;;;13.03;;
18881;SDS011;9573;50.948;11.600;2023-01-24T10:38:36;36.87;;;13.57;;
18881;SDS011;9573;50.948;11.600;2023-01-24T10:41:14;34.23;;;12.63;;
18881;SDS011;9573;50.948;11.600;2023-01-24T10:43:46;33.10;;;11.97;;
18881;SDS011;9573;50.948;11.600;2023-01-24T10:49:25;33.10;;;12.67;;
18881;SDS011;9573;50.948;11.600;2023-01-24T10:52:11;35.03;;;13.17;;
18881;SDS011;9573;50.948;11.600;2023-01-24T10:54:45;35.83;;;13.27;;
18881;SDS011;9573;50.948;11.600;2023-01-24T11:00:19;34.97;;;13.33;;
18881;SDS011;9573;50.948;11.600;2023-01-24T11:02:56;36.60;;;13.40;;
18881;SDS011;9573;50.948;11.600;2023-01-24T11:05:34;38.77;;;14.97;;
18881;SDS011;9573;50.948;11.600;2023-01-24T11:08:05;41.67;;;15.77;;
18881;SDS011;9573;50.948;11.600;2023-01-24T11:10:36;36.53;;;14.07;;
18881;SDS011;9573;50.948;11.600;2023-01-24T11:13:18;37.43;;;14.27;;
18881;SDS011;9573;50.948;11.600;2023-01-24T11:16:01;35.07;;;14.03;;
18881;SDS011;9573;50.948;11.600;2023-01-24T11:18:32;40.33;;;14.30;;
18881;SDS011;9573;50.948;11.600;2023-01-24T11:21:14;37.67;;;14.47;;
18881;SDS011;9573;50.948;11.600;2023-01-24T11:23:43;36.50;;;14.10;;
18881;SDS011;9573;50.948;11.600;2023-01-24T11:26:21;41.93;;;15.33;;
18881;SDS011;9573;50.948;11.600;2023-01-24T11:28:58;37.10;;;14.20;;
18881;SDS011;9573;50.948;11.600;2023-01-24T11:31:28;39.13;;;14.20;;
18881;SDS011;9573;50.948;11.600;2023-01-24T11:37:10;37.00;;;13.77;;
18881;SDS011;9573;50.948;11.600;2023-01-24T11:40:04;35.47;;;12.97;;
18881;SDS011;9573;50.948;11.600;2023-01-24T11:43:03;41.00;;;15.03;;
18881;SDS011;9573;50.948;11.600;2023-01-24T11:45:55;40.20;;;14.53;;
18881;SDS011;9573;50.948;11.600;2023-01-24T11:48:40;41.40;;;15.83;;
18881;SDS011;9573;50.948;11.600;2023-01-24T11:51:17;40.10;;;15.63;;
18881;SDS011;9573;50.948;11.600;2023-01-24T11:54:04;41.70;;;15.93;;
18881;SDS011;9573;50.948;11.600;2023-01-24T11:56:53;43.20;;;16.80;;
18881;SDS011;9573;50.948;11.600;2023-01-24T11:59:30;44.77;;;17.03;;
18881;SDS011;9573;50.948;11.600;2023-01-24T12:02:25;41.77;;;16.17;;
18881;SDS011;9573;50.948;11.600;2023-01-24T12:05:21;46.20;;;15.87;;
18881;SDS011;9573;50.948;11.600;2023-01-24T12:08:02;45.73;;;16.93;;
18881;SDS011;9573;50.948;11.600;2023-01-24T12:10:48;46.10;;;17.10;;
18881;SDS011;9573;50.948;11.600;2023-01-24T12:13:29;44.70;;;16.37;;
18881;SDS011;9573;50.948;11.600;2023-01-24T12:16:09;43.20;;;16.70;;
18881;SDS011;9573;50.948;11.600;2023-01-24T12:18:58;42.30;;;16.50;;
18881;SDS011;9573;50.948;11.600;2023-01-24T12:21:41;40.47;;;15.10;;
18881;SDS011;9573;50.948;11.600;2023-01-24T12:24:10;40.03;;;15.23;;
18881;SDS011;9573;50.948;11.600;2023-01-24T12:26:44;42.53;;;15.43;;
18881;SDS011;9573;50.948;11.600;2023-01-24T12:29:17;45.30;;;16.43;;
18881;SDS011;9573;50.948;11.600;2023-01-24T12:31:50;44.23;;;16.83;;
18881;SDS011;9573;50.948;11.600;2023-01-24T12:34:35;40.23;;;14.77;;
18881;SDS011;9573;50.948;11.600;2023-01-24T12:37:10;40.10;;;15.73;;
18881;SDS011;9573;50.948;11.600;2023-01-24T12:39:50;44.63;;;15.50;;
18881;SDS011;9573;50.948;11.600;2023-01-24T12:42:35;44.67;;;17.60;;
18881;SDS011;9573;50.948;11.600;2023-01-24T12:45:14;42.03;;;15.80;;
18881;SDS011;9573;50.948;11.600;2023-01-24T12:47:48;43.93;;;16.00;;
18881;SDS011;9573;50.948;11.600;2023-01-24T12:50:22;41.50;;;15.53;;
18881;SDS011;9573;50.948;11.600;2023-01-24T12:52:59;43.90;;;17.20;;
18881;SDS011;9573;50.948;11.600;2023-01-24T12:55:37;42.93;;;15.30;;
18881;SDS011;9573;50.948;11.600;2023-01-24T12:58:13;42.10;;;16.07;;
18881;SDS011;9573;50.948;11.600;2023-01-24T13:00:49;40.33;;;14.20;;
18881;SDS011;9573;50.948;11.600;2023-01-24T13:03:31;41.17;;;14.53;;
18881;SDS011;9573;50.948;11.600;2023-01-24T13:06:22;44.43;;;15.27;;
18881;SDS011;9573;50.948;11.600;2023-01-24T13:09:00;41.77;;;15.10;;
18881;SDS011;9573;50.948;11.600;2023-01-24T13:11:37;43.53;;;15.43;;
18881;SDS011;9573;50.948;11.600;2023-01-24T13:14:13;38.73;;;14.50;;
18881;SDS011;9573;50.948;11.600;2023-01-24T13:20:04;44.70;;;15.83;;
18881;SDS011;9573;50.948;11.600;2023-01-24T13:23:04;40.13;;;15.40;;
18881;SDS011;9573;50.948;11.600;2023-01-24T13:25:52;42.00;;;15.27;;
18881;SDS011;9573;50.948;11.600;2023-01-24T13:28:39;41.50;;;15.17;;
18881;SDS011;9573;50.948;11.600;2023-01-24T13:31:19;43.30;;;15.43;;
18881;SDS011;9573;50.948;11.600;2023-01-24T13:33:54;40.67;;;14.97;;
18881;SDS011;9573;50.948;11.600;2023-01-24T13:36:26;40.07;;;15.30;;
18881;SDS011;9573;50.948;11.600;2023-01-24T13:38:58;38.10;;;14.93;;
18881;SDS011;9573;50.948;11.600;2023-01-24T13:41:33;40.33;;;14.67;;
18881;SDS011;9573;50.948;11.600;2023-01-24T13:44:03;40.10;;;14.17;;
18881;SDS011;9573;50.948;11.600;2023-01-24T13:46:58;41.63;;;15.23;;
18881;SDS011;9573;50.948;11.600;2023-01-24T13:50:02;45.50;;;15.87;;
18881;SDS011;9573;50.948;11.600;2023-01-24T13:52:44;43.73;;;15.20;;
18881;SDS011;9573;50.948;11.600;2023-01-24T13:58:26;42.33;;;14.67;;
18881;SDS011;9573;50.948;11.600;2023-01-24T14:00:56;41.53;;;14.30;;
18881;SDS011;9573;50.948;11.600;2023-01-24T14:03:27;38.67;;;15.23;;
18881;SDS011;9573;50.948;11.600;2023-01-24T14:06:05;40.97;;;14.83;;
18881;SDS011;9573;50.948;11.600;2023-01-24T14:08:44;44.23;;;15.77;;
18881;SDS011;9573;50.948;11.600;2023-01-24T14:14:24;43.83;;;15.97;;
18881;SDS011;9573;50.948;11.600;2023-01-24T14:20:33;42.27;;;15.63;;
18881;SDS011;9573;50.948;11.600;2023-01-24T14:23:13;44.67;;;15.53;;
18881;SDS011;9573;50.948;11.600;2023-01-24T14:25:48;41.47;;;15.00;;
18881;SDS011;9573;50.948;11.600;2023-01-24T14:28:19;40.90;;;14.83;;
18881;SDS011;9573;50.948;11.600;2023-01-24T14:30:54;42.13;;;15.30;;
18881;SDS011;9573;50.948;11.600;2023-01-24T14:33:27;39.63;;;14.90;;
18881;SDS011;9573;50.948;11.600;2023-01-24T14:36:04;49.53;;;17.17;;
18881;SDS011;9573;50.948;11.600;2023-01-24T14:38:39;44.40;;;15.50;;
18881;SDS011;9573;50.948;11.600;2023-01-24T14:41:11;41.40;;;15.37;;
18881;SDS011;9573;50.948;11.600;2023-01-24T14:43:47;43.33;;;15.80;;
18881;SDS011;9573;50.948;11.600;2023-01-24T14:46:17;43.07;;;15.37;;
18881;SDS011;9573;50.948;11.600;2023-01-24T14:48:48;44.07;;;15.93;;
18881;SDS011;9573;50.948;11.600;2023-01-24T14:51:18;41.97;;;15.00;;
18881;SDS011;9573;50.948;11.600;2023-01-24T14:53:49;42.23;;;15.70;;
18881;SDS011;9573;50.948;11.600;2023-01-24T14:56:19;43.23;;;15.63;;
18881;SDS011;9573;50.948;11.600;2023-01-24T14:58:47;42.87;;;15.17;;
18881;SDS011;9573;50.948;11.600;2023-01-24T15:01:25;47.40;;;16.80;;
18881;SDS011;9573;50.948;11.600;2023-01-24T15:03:57;46.27;;;15.73;;
18881;SDS011;9573;50.948;11.600;2023-01-24T15:06:27;45.50;;;16.53;;
18881;SDS011;9573;50.948;11.600;2023-01-24T15:08:55;47.20;;;16.93;;
18881;SDS011;9573;50.948;11.600;2023-01-24T15:11:25;44.73;;;16.27;;
18881;SDS011;9573;50.948;11.600;2023-01-24T15:13:56;44.83;;;17.10;;